sensor_id;sensor_type;location;lat;lon;timestamp;P1;durP1;ratioP1;P2;durP2;ratioP2
46348;SDS011;32057;47.830;19.046;2024-03-23T00:55:48;1.42;;;1.33;;
46348;SDS011;32057;47.830;19.046;2024-03-23T00:58:13;5.43;;;1.95;;
46348;SDS011;32057;47.830;19.046;2024-03-23T01:00:39;1.52;;;1.50;;
46348;SDS011;32057;47.830;19.046;2024-03-23T01:03:04;3.70;;;2.10;;
46348;SDS011;32057;47.830;19.046;2024-03-23T01:05:29;1.60;;;1.50;;
46348;SDS011;32057;47.830;19.046;2024-03-23T01:07:55;2.03;;;1.45;;
46348;SDS011;32057;47.830;19.046;2024-03-23T01:10:20;1.38;;;1.35;;
46348;SDS011;32057;47.830;19.046;2024-03-23T01:12:45;1.48;;;1.42;;
46348;SDS011;32057;47.830;19.046;2024-03-23T01:15:11;1.65;;;1.58;;
46348;SDS011;32057;47.830;19.046;2024-03-23T01:17:36;1.15;;;0.88;;
46348;SDS011;32057;47.830;19.046;2024-03-23T01:20:01;1.00;;;1.00;;
46348;SDS011;32057;47.830;19.046;2024-03-23T01:22:27;1.10;;;1.10;;
46348;SDS011;32057;47.830;19.046;2024-03-23T01:24:53;2.90;;;1.52;;
46348;SDS011;32057;47.830;19.046;2024-03-23T01:27:18;1.42;;;1.42;;
46348;SDS011;32057;47.830;19.046;2024-03-23T01:29:43;2.15;;;1.55;;
46348;SDS011;32057;47.830;19.046;2024-03-23T01:32:09;0.65;;;0.65;;
46348;SDS011;32057;47.830;19.046;2024-03-23T01:34:34;1.73;;;1.67;;
46348;SDS011;32057;47.830;19.046;2024-03-23T01:37:00;0.80;;;0.80;;
46348;SDS011;32057;47.830;19.046;2024-03-23T01:39:25;0.68;;;0.68;;
46348;SDS011;32057;47.830;19.046;2024-03-23T01:41:51;1.30;;;1.13;;
46348;SDS011;32057;47.830;19.046;2024-03-23T01:44:16;1.98;;;1.88;;
46348;SDS011;32057;47.830;19.046;2024-03-23T01:46:42;3.05;;;1.58;;
46348;SDS011;32057;47.830;19.046;2024-03-23T01:49:08;7.60;;;1.67;;
46348;SDS011;32057;47.830;19.046;2024-03-23T01:51:34;5.13;;;1.77;;
46348;SDS011;32057;47.830;19.046;2024-03-23T01:54:04;4.78;;;1.45;;
46348;SDS011;32057;47.830;19.046;2024-03-23T01:56:34;1.15;;;1.15;;
46348;SDS011;32057;47.830;19.046;2024-03-23T01:59:03;2.05;;;1.60;;
46348;SDS011;32057;47.830;19.046;2024-03-23T02:01:31;2.25;;;2.15;;
46348;SDS011;32057;47.830;19.046;2024-03-23T02:03:57;0.85;;;0.85;;
46348;SDS011;32057;47.830;19.046;2024-03-23T02:06:26;1.02;;;1.02;;
46348;SDS011;32057;47.830;19.046;2024-03-23T02:08:51;1.45;;;1.42;;
46348;SDS011;32057;47.830;19.046;2024-03-23T02:11:17;2.45;;;2.30;;
46348;SDS011;32057;47.830;19.046;2024-03-23T02:13:42;0.73;;;0.73;;
46348;SDS011;32057;47.830;19.046;2024-03-23T02:16:07;1.40;;;1.13;;
46348;SDS011;32057;47.830;19.046;2024-03-23T02:18:33;0.73;;;0.73;;
46348;SDS011;32057;47.830;19.046;2024-03-23T02:20:59;1.23;;;1.15;;
46348;SDS011;32057;47.830;19.046;2024-03-23T02:23:24;2.22;;;1.23;;
46348;SDS011;32057;47.830;19.046;2024-03-23T02:25:50;3.35;;;3.05;;
46348;SDS011;32057;47.830;19.046;2024-03-23T02:28:15;1.48;;;1.48;;
46348;SDS011;32057;47.830;19.046;2024-03-23T02:30:42;1.88;;;1.80;;
46348;SDS011;32057;47.830;19.046;2024-03-23T02:33:07;1.90;;;1.38;;
46348;SDS011;32057;47.830;19.046;2024-03-23T02:35:32;0.77;;;0.77;;
46348;SDS011;32057;47.830;19.046;2024-03-23T02:37:58;0.70;;;0.70;;
46348;SDS011;32057;47.830;19.046;2024-03-23T02:40:23;3.40;;;2.80;;
46348;SDS011;32057;47.830;19.046;2024-03-23T02:42:49;0.75;;;0.75;;
46348;SDS011;32057;47.830;19.046;2024-03-23T02:45:14;2.28;;;2.10;;
46348;SDS011;32057;47.830;19.046;2024-03-23T02:47:40;0.47;;;0.47;;
46348;SDS011;32057;47.830;19.046;2024-03-23T02:50:05;1.30;;;1.25;;
46348;SDS011;32057;47.830;19.046;2024-03-23T02:52:31;2.85;;;1.50;;
46348;SDS011;32057;47.830;19.046;2024-03-23T02:54:56;4.00;;;2.13;;
46348;SDS011;32057;47.830;19.046;2024-03-23T02:57:22;1.75;;;1.35;;
46348;SDS011;32057;47.830;19.046;2024-03-23T02:59:48;1.10;;;1.10;;
46348;SDS011;32057;47.830;19.046;2024-03-23T03:02:13;5.25;;;1.05;;
46348;SDS011;32057;47.830;19.046;2024-03-23T03:04:39;1.13;;;1.13;;
46348;SDS011;32057;47.830;19.046;2024-03-23T03:07:05;2.95;;;2.47;;
46348;SDS011;32057;47.830;19.046;2024-03-23T03:09:30;1.63;;;1.52;;
46348;SDS011;32057;47.830;19.046;2024-03-23T03:11:56;0.47;;;0.47;;
46348;SDS011;32057;47.830;19.046;2024-03-23T03:14:22;2.40;;;1.35;;
46348;SDS011;32057;47.830;19.046;2024-03-23T03:16:47;1.05;;;1.05;;
46348;SDS011;32057;47.830;19.046;2024-03-23T03:19:12;0.85;;;0.82;;
46348;SDS011;32057;47.830;19.046;2024-03-23T03:21:38;1.15;;;0.60;;
46348;SDS011;32057;47.830;19.046;2024-03-23T03:24:05;2.47;;;1.60;;
46348;SDS011;32057;47.830;19.046;2024-03-23T03:26:31;2.38;;;1.25;;
46348;SDS011;32057;47.830;19.046;2024-03-23T03:28:57;1.52;;;1.42;;
46348;SDS011;32057;47.830;19.046;2024-03-23T03:31:22;0.73;;;0.73;;
46348;SDS011;32057;47.830;19.046;2024-03-23T03:33:49;1.05;;;1.05;;
46348;SDS011;32057;47.830;19.046;2024-03-23T03:36:15;1.10;;;1.08;;
46348;SDS011;32057;47.830;19.046;2024-03-23T03:38:40;0.65;;;0.65;;
46348;SDS011;32057;47.830;19.046;2024-03-23T03:41:06;1.90;;;1.67;;
46348;SDS011;32057;47.830;19.046;2024-03-23T03:43:31;4.53;;;2.13;;
46348;SDS011;32057;47.830;19.046;2024-03-23T03:45:57;1.80;;;1.75;;
46348;SDS011;32057;47.830;19.046;2024-03-23T03:48:24;0.75;;;0.65;;
46348;SDS011;32057;47.830;19.046;2024-03-23T03:50:49;0.63;;;0.63;;
46348;SDS011;32057;47.830;19.046;2024-03-23T03:53:14;1.38;;;1.27;;
46348;SDS011;32057;47.830;19.046;2024-03-23T03:55:40;1.75;;;1.60;;
46348;SDS011;32057;47.830;19.046;2024-03-23T03:58:05;1.67;;;1.67;;
46348;SDS011;32057;47.830;19.046;2024-03-23T04:00:31;1.35;;;1.35;;
46348;SDS011;32057;47.830;19.046;2024-03-23T04:02:56;1.88;;;1.77;;
46348;SDS011;32057;47.830;19.046;2024-03-23T04:05:22;0.60;;;0.60;;
46348;SDS011;32057;47.830;19.046;2024-03-23T04:07:47;1.90;;;1.58;;
46348;SDS011;32057;47.830;19.046;2024-03-23T04:10:13;2.03;;;1.90;;
46348;SDS011;32057;47.830;19.046;2024-03-23T04:12:38;1.02;;;1.02;;
46348;SDS011;32057;47.830;19.046;2024-03-23T04:15:04;1.30;;;1.30;;
46348;SDS011;32057;47.830;19.046;2024-03-23T04:17:30;0.40;;;0.40;;
46348;SDS011;32057;47.830;19.046;2024-03-23T04:19:59;0.90;;;0.80;;
46348;SDS011;32057;47.830;19.046;2024-03-23T04:22:25;0.77;;;0.77;;
46348;SDS011;32057;47.830;19.046;2024-03-23T04:24:54;3.28;;;3.08;;
46348;SDS011;32057;47.830;19.046;2024-03-23T04:27:21;0.88;;;0.88;;
46348;SDS011;32057;47.830;19.046;2024-03-23T04:29:47;2.10;;;1.70;;
46348;SDS011;32057;47.830;19.046;2024-03-23T04:32:13;0.77;;;0.77;;
46348;SDS011;32057;47.830;19.046;2024-03-23T04:34:39;0.93;;;0.93;;
46348;SDS011;32057;47.830;19.046;2024-03-23T04:37:04;1.70;;;1.35;;
46348;SDS011;32057;47.830;19.046;2024-03-23T04:39:30;1.75;;;1.63;;
46348;SDS011;32057;47.830;19.046;2024-03-23T04:41:55;2.28;;;1.30;;
46348;SDS011;32057;47.830;19.046;2024-03-23T04:44:20;1.60;;;1.55;;
46348;SDS011;32057;47.830;19.046;2024-03-23T04:46:46;0.80;;;0.80;;
46348;SDS011;32057;47.830;19.046;2024-03-23T04:49:11;1.20;;;1.20;;
46348;SDS011;32057;47.830;19.046;2024-03-23T04:51:36;1.98;;;1.00;;
46348;SDS011;32057;47.830;19.046;2024-03-23T04:54:02;1.58;;;1.48;;
46348;SDS011;32057;47.830;19.046;2024-03-23T04:56:29;4.75;;;2.70;;
46348;SDS011;32057;47.830;19.046;2024-03-23T04:58:54;1.15;;;1.15;;
46348;SDS011;32057;47.830;19.046;2024-03-23T05:01:19;0.75;;;0.75;;
46348;SDS011;32057;47.830;19.046;2024-03-23T05:03:45;1.45;;;1.42;;
46348;SDS011;32057;47.830;19.046;2024-03-23T05:06:10;1.00;;;1.00;;
46348;SDS011;32057;47.830;19.046;2024-03-23T05:08:35;4.95;;;1.23;;
46348;SDS011;32057;47.830;19.046;2024-03-23T05:11:01;1.23;;;1.13;;
46348;SDS011;32057;47.830;19.046;2024-03-23T05:13:26;1.45;;;1.35;;
46348;SDS011;32057;47.830;19.046;2024-03-23T05:15:54;0.95;;;0.95;;
46348;SDS011;32057;47.830;19.046;2024-03-23T05:18:20;1.30;;;1.10;;
46348;SDS011;32057;47.830;19.046;2024-03-23T05:20:46;1.95;;;1.90;;
46348;SDS011;32057;47.830;19.046;2024-03-23T05:23:12;0.75;;;0.75;;
46348;SDS011;32057;47.830;19.046;2024-03-23T05:25:37;1.15;;;1.15;;
46348;SDS011;32057;47.830;19.046;2024-03-23T05:28:02;1.40;;;1.30;;
46348;SDS011;32057;47.830;19.046;2024-03-23T05:30:28;0.90;;;0.82;;
46348;SDS011;32057;47.830;19.046;2024-03-23T05:32:53;0.50;;;0.50;;
46348;SDS011;32057;47.830;19.046;2024-03-23T05:35:19;0.95;;;0.95;;
46348;SDS011;32057;47.830;19.046;2024-03-23T05:37:44;0.45;;;0.43;;
46348;SDS011;32057;47.830;19.046;2024-03-23T05:40:10;3.63;;;2.15;;
46348;SDS011;32057;47.830;19.046;2024-03-23T05:42:37;2.13;;;2.03;;
46348;SDS011;32057;47.830;19.046;2024-03-23T05:45:03;1.48;;;1.45;;
46348;SDS011;32057;47.830;19.046;2024-03-23T05:47:31;1.73;;;1.63;;
46348;SDS011;32057;47.830;19.046;2024-03-23T05:49:56;1.67;;;1.58;;
46348;SDS011;32057;47.830;19.046;2024-03-23T05:52:22;3.03;;;1.05;;
46348;SDS011;32057;47.830;19.046;2024-03-23T05:54:50;0.93;;;0.93;;
46348;SDS011;32057;47.830;19.046;2024-03-23T05:57:15;1.13;;;1.10;;
46348;SDS011;32057;47.830;19.046;2024-03-23T05:59:41;2.97;;;2.55;;
46348;SDS011;32057;47.830;19.046;2024-03-23T06:02:06;1.52;;;1.45;;
46348;SDS011;32057;47.830;19.046;2024-03-23T06:04:32;2.55;;;0.68;;
46348;SDS011;32057;47.830;19.046;2024-03-23T06:06:57;4.00;;;3.42;;
46348;SDS011;32057;47.830;19.046;2024-03-23T06:09:22;0.50;;;0.50;;
46348;SDS011;32057;47.830;19.046;2024-03-23T06:11:48;1.48;;;1.38;;
46348;SDS011;32057;47.830;19.046;2024-03-23T06:14:13;0.95;;;0.93;;
46348;SDS011;32057;47.830;19.046;2024-03-23T06:16:39;3.22;;;1.73;;
46348;SDS011;32057;47.830;19.046;2024-03-23T06:19:04;2.67;;;2.47;;
46348;SDS011;32057;47.830;19.046;2024-03-23T06:21:31;3.55;;;2.45;;
46348;SDS011;32057;47.830;19.046;2024-03-23T06:23:57;3.88;;;3.58;;
46348;SDS011;32057;47.830;19.046;2024-03-23T06:26:23;3.10;;;2.25;;
46348;SDS011;32057;47.830;19.046;2024-03-23T06:28:48;2.80;;;2.33;;
46348;SDS011;32057;47.830;19.046;2024-03-23T06:31:14;1.98;;;1.88;;
46348;SDS011;32057;47.830;19.046;2024-03-23T06:33:40;4.95;;;2.20;;
46348;SDS011;32057;47.830;19.046;2024-03-23T06:36:07;2.88;;;1.77;;
46348;SDS011;32057;47.830;19.046;2024-03-23T06:38:34;3.47;;;3.00;;
46348;SDS011;32057;47.830;19.046;2024-03-23T06:41:02;3.75;;;3.50;;
46348;SDS011;32057;47.830;19.046;2024-03-23T06:43:28;1.88;;;1.77;;
46348;SDS011;32057;47.830;19.046;2024-03-23T06:45:53;3.03;;;2.80;;
46348;SDS011;32057;47.830;19.046;2024-03-23T06:48:19;2.08;;;1.98;;
46348;SDS011;32057;47.830;19.046;2024-03-23T06:50:45;3.58;;;2.70;;
46348;SDS011;32057;47.830;19.046;2024-03-23T06:53:12;3.28;;;3.08;;
46348;SDS011;32057;47.830;19.046;2024-03-23T06:55:38;2.03;;;1.92;;
46348;SDS011;32057;47.830;19.046;2024-03-23T06:58:03;4.68;;;2.35;;
46348;SDS011;32057;47.830;19.046;2024-03-23T07:00:29;4.38;;;2.78;;
46348;SDS011;32057;47.830;19.046;2024-03-23T07:02:54;1.63;;;1.60;;
46348;SDS011;32057;47.830;19.046;2024-03-23T07:05:20;2.38;;;2.28;;
46348;SDS011;32057;47.830;19.046;2024-03-23T07:07:45;4.40;;;2.28;;
46348;SDS011;32057;47.830;19.046;2024-03-23T07:10:10;5.65;;;3.22;;
46348;SDS011;32057;47.830;19.046;2024-03-23T07:12:35;3.40;;;3.17;;
46348;SDS011;32057;47.830;19.046;2024-03-23T07:15:01;3.78;;;3.47;;
46348;SDS011;32057;47.830;19.046;2024-03-23T07:17:26;2.60;;;2.42;;
46348;SDS011;32057;47.830;19.046;2024-03-23T07:19:51;2.85;;;2.65;;
46348;SDS011;32057;47.830;19.046;2024-03-23T07:22:17;4.70;;;3.65;;
46348;SDS011;32057;47.830;19.046;2024-03-23T07:24:43;2.70;;;2.50;;
46348;SDS011;32057;47.830;19.046;2024-03-23T07:27:09;4.55;;;3.08;;
46348;SDS011;32057;47.830;19.046;2024-03-23T07:29:35;2.30;;;2.15;;
46348;SDS011;32057;47.830;19.046;2024-03-23T07:32:01;2.50;;;2.30;;
46348;SDS011;32057;47.830;19.046;2024-03-23T07:34:26;4.30;;;3.90;;
46348;SDS011;32057;47.830;19.046;2024-03-23T07:36:51;3.55;;;3.20;;
46348;SDS011;32057;47.830;19.046;2024-03-23T07:39:16;2.25;;;1.60;;
46348;SDS011;32057;47.830;19.046;2024-03-23T07:41:44;3.33;;;2.28;;
46348;SDS011;32057;47.830;19.046;2024-03-23T07:44:10;3.70;;;3.40;;
46348;SDS011;32057;47.830;19.046;2024-03-23T07:46:35;3.40;;;3.17;;
46348;SDS011;32057;47.830;19.046;2024-03-23T07:49:00;4.55;;;4.15;;
46348;SDS011;32057;47.830;19.046;2024-03-23T07:51:26;2.33;;;2.03;;
46348;SDS011;32057;47.830;19.046;2024-03-23T07:53:51;6.07;;;1.95;;
46348;SDS011;32057;47.830;19.046;2024-03-23T07:56:17;2.90;;;2.70;;
46348;SDS011;32057;47.830;19.046;2024-03-23T07:58:44;2.83;;;2.08;;
46348;SDS011;32057;47.830;19.046;2024-03-23T08:01:16;3.22;;;3.03;;
46348;SDS011;32057;47.830;19.046;2024-03-23T08:03:43;5.20;;;2.55;;
46348;SDS011;32057;47.830;19.046;2024-03-23T08:06:09;3.03;;;2.55;;
46348;SDS011;32057;47.830;19.046;2024-03-23T08:08:39;4.30;;;3.38;;
46348;SDS011;32057;47.830;19.046;2024-03-23T08:11:06;3.10;;;2.42;;
46348;SDS011;32057;47.830;19.046;2024-03-23T08:13:33;4.88;;;2.97;;
46348;SDS011;32057;47.830;19.046;2024-03-23T08:16:00;6.57;;;3.80;;
46348;SDS011;32057;47.830;19.046;2024-03-23T08:18:26;13.98;;;3.30;;
46348;SDS011;32057;47.830;19.046;2024-03-23T08:21:10;3.88;;;3.65;;
46348;SDS011;32057;47.830;19.046;2024-03-23T08:23:35;3.72;;;2.65;;
46348;SDS011;32057;47.830;19.046;2024-03-23T08:26:12;4.43;;;3.90;;
46348;SDS011;32057;47.830;19.046;2024-03-23T08:28:39;3.25;;;2.15;;
46348;SDS011;32057;47.830;19.046;2024-03-23T08:31:06;2.25;;;2.15;;
46348;SDS011;32057;47.830;19.046;2024-03-23T08:33:33;3.47;;;2.92;;
46348;SDS011;32057;47.830;19.046;2024-03-23T08:36:00;5.07;;;3.88;;
46348;SDS011;32057;47.830;19.046;2024-03-23T08:38:27;2.80;;;2.58;;
46348;SDS011;32057;47.830;19.046;2024-03-23T08:41:14;3.45;;;3.15;;
46348;SDS011;32057;47.830;19.046;2024-03-23T08:43:39;4.07;;;2.85;;
46348;SDS011;32057;47.830;19.046;2024-03-23T08:46:07;5.13;;;2.97;;
46348;SDS011;32057;47.830;19.046;2024-03-23T08:48:37;3.97;;;3.67;;
46348;SDS011;32057;47.830;19.046;2024-03-23T08:51:04;4.10;;;2.88;;
46348;SDS011;32057;47.830;19.046;2024-03-23T08:53:33;7.25;;;3.35;;
46348;SDS011;32057;47.830;19.046;2024-03-23T08:55:59;2.90;;;2.65;;
46348;SDS011;32057;47.830;19.046;2024-03-23T08:58:28;2.22;;;2.00;;
46348;SDS011;32057;47.830;19.046;2024-03-23T09:00:55;6.43;;;3.40;;
46348;SDS011;32057;47.830;19.046;2024-03-23T09:03:24;4.13;;;3.72;;
46348;SDS011;32057;47.830;19.046;2024-03-23T09:05:50;5.25;;;2.65;;
46348;SDS011;32057;47.830;19.046;2024-03-23T09:08:16;2.88;;;2.13;;
46348;SDS011;32057;47.830;19.046;2024-03-23T09:10:42;5.10;;;4.63;;
46348;SDS011;32057;47.830;19.046;2024-03-23T09:13:07;3.67;;;3.47;;
46348;SDS011;32057;47.830;19.046;2024-03-23T09:15:34;4.97;;;4.30;;
46348;SDS011;32057;47.830;19.046;2024-03-23T09:17:59;3.88;;;2.80;;
46348;SDS011;32057;47.830;19.046;2024-03-23T09:20:25;4.13;;;3.65;;
46348;SDS011;32057;47.830;19.046;2024-03-23T09:22:51;3.35;;;2.85;;
46348;SDS011;32057;47.830;19.046;2024-03-23T09:25:16;5.18;;;4.38;;
46348;SDS011;32057;47.830;19.046;2024-03-23T09:27:41;4.40;;;3.03;;
46348;SDS011;32057;47.830;19.046;2024-03-23T09:30:07;7.93;;;4.03;;
46348;SDS011;32057;47.830;19.046;2024-03-23T09:32:32;5.22;;;2.40;;
46348;SDS011;32057;47.830;19.046;2024-03-23T09:34:58;5.15;;;4.20;;
46348;SDS011;32057;47.830;19.046;2024-03-23T09:37:23;7.43;;;4.28;;
46348;SDS011;32057;47.830;19.046;2024-03-23T09:39:48;6.03;;;2.65;;
46348;SDS011;32057;47.830;19.046;2024-03-23T09:42:13;5.65;;;4.20;;
46348;SDS011;32057;47.830;19.046;2024-03-23T09:44:39;6.50;;;3.40;;
46348;SDS011;32057;47.830;19.046;2024-03-23T09:47:05;4.85;;;3.05;;
46348;SDS011;32057;47.830;19.046;2024-03-23T09:49:30;4.22;;;3.50;;
46348;SDS011;32057;47.830;19.046;2024-03-23T09:51:57;4.22;;;3.83;;
46348;SDS011;32057;47.830;19.046;2024-03-23T09:54:23;4.18;;;3.78;;
46348;SDS011;32057;47.830;19.046;2024-03-23T09:56:49;7.18;;;3.58;;
46348;SDS011;32057;47.830;19.046;2024-03-23T09:59:14;6.85;;;2.58;;
46348;SDS011;32057;47.830;19.046;2024-03-23T10:01:40;3.75;;;3.47;;
46348;SDS011;32057;47.830;19.046;2024-03-23T10:04:06;3.90;;;3.60;;
46348;SDS011;32057;47.830;19.046;2024-03-23T10:06:32;3.60;;;3.30;;
46348;SDS011;32057;47.830;19.046;2024-03-23T10:08:59;5.38;;;3.05;;
46348;SDS011;32057;47.830;19.046;2024-03-23T10:11:24;2.58;;;2.38;;
46348;SDS011;32057;47.830;19.046;2024-03-23T10:13:50;3.90;;;2.45;;
46348;SDS011;32057;47.830;19.046;2024-03-23T10:16:22;2.65;;;2.45;;
46348;SDS011;32057;47.830;19.046;2024-03-23T10:18:48;2.15;;;2.05;;
46348;SDS011;32057;47.830;19.046;2024-03-23T10:21:14;4.95;;;3.22;;
46348;SDS011;32057;47.830;19.046;2024-03-23T10:23:41;5.35;;;3.53;;
46348;SDS011;32057;47.830;19.046;2024-03-23T10:28:51;3.45;;;3.15;;
46348;SDS011;32057;47.830;19.046;2024-03-23T10:31:27;2.70;;;2.53;;
46348;SDS011;32057;47.830;19.046;2024-03-23T10:33:53;2.22;;;1.90;;
46348;SDS011;32057;47.830;19.046;2024-03-23T10:36:19;2.17;;;2.08;;
46348;SDS011;32057;47.830;19.046;2024-03-23T10:38:45;1.98;;;1.85;;
46348;SDS011;32057;47.830;19.046;2024-03-23T10:41:11;2.63;;;2.50;;
46348;SDS011;32057;47.830;19.046;2024-03-23T10:43:37;5.68;;;2.42;;
46348;SDS011;32057;47.830;19.046;2024-03-23T10:46:04;3.67;;;3.25;;
46348;SDS011;32057;47.830;19.046;2024-03-23T10:48:30;2.33;;;2.20;;
46348;SDS011;32057;47.830;19.046;2024-03-23T10:50:56;3.08;;;2.83;;
46348;SDS011;32057;47.830;19.046;2024-03-23T10:53:22;2.50;;;2.30;;
46348;SDS011;32057;47.830;19.046;2024-03-23T10:55:51;3.28;;;2.63;;
46348;SDS011;32057;47.830;19.046;2024-03-23T10:58:18;3.58;;;3.13;;
46348;SDS011;32057;47.830;19.046;2024-03-23T11:00:46;2.92;;;2.50;;
46348;SDS011;32057;47.830;19.046;2024-03-23T11:05:58;2.40;;;2.25;;
46348;SDS011;32057;47.830;19.046;2024-03-23T11:08:37;4.30;;;2.30;;
46348;SDS011;32057;47.830;19.046;2024-03-23T11:13:44;6.18;;;1.92;;
46348;SDS011;32057;47.830;19.046;2024-03-23T11:16:12;2.13;;;1.92;;
46348;SDS011;32057;47.830;19.046;2024-03-23T11:18:42;2.20;;;1.95;;
46348;SDS011;32057;47.830;19.046;2024-03-23T11:21:08;3.58;;;2.70;;
46348;SDS011;32057;47.830;19.046;2024-03-23T11:23:34;1.88;;;1.77;;
46348;SDS011;32057;47.830;19.046;2024-03-23T11:25:59;2.58;;;2.38;;
46348;SDS011;32057;47.830;19.046;2024-03-23T11:28:25;2.47;;;1.40;;
46348;SDS011;32057;47.830;19.046;2024-03-23T11:30:50;5.05;;;2.53;;
46348;SDS011;32057;47.830;19.046;2024-03-23T11:33:15;1.63;;;1.52;;
46348;SDS011;32057;47.830;19.046;2024-03-23T11:35:41;2.40;;;2.17;;
46348;SDS011;32057;47.830;19.046;2024-03-23T11:38:07;3.08;;;2.22;;
46348;SDS011;32057;47.830;19.046;2024-03-23T11:40:37;2.00;;;0.90;;
46348;SDS011;32057;47.830;19.046;2024-03-23T11:43:04;2.72;;;2.55;;
46348;SDS011;32057;47.830;19.046;2024-03-23T11:45:49;1.40;;;1.30;;
46348;SDS011;32057;47.830;19.046;2024-03-23T11:48:20;1.95;;;1.73;;
46348;SDS011;32057;47.830;19.046;2024-03-23T11:50:48;3.17;;;1.63;;
46348;SDS011;32057;47.830;19.046;2024-03-23T11:53:16;1.48;;;1.38;;
46348;SDS011;32057;47.830;19.046;2024-03-23T11:55:46;1.85;;;1.70;;
46348;SDS011;32057;47.830;19.046;2024-03-23T11:58:14;1.48;;;1.25;;
46348;SDS011;32057;47.830;19.046;2024-03-23T12:00:40;0.68;;;0.68;;
46348;SDS011;32057;47.830;19.046;2024-03-23T12:03:05;3.33;;;1.42;;
46348;SDS011;32057;47.830;19.046;2024-03-23T12:05:31;2.53;;;1.23;;
46348;SDS011;32057;47.830;19.046;2024-03-23T12:10:52;0.60;;;0.60;;
46348;SDS011;32057;47.830;19.046;2024-03-23T12:13:30;1.67;;;1.55;;
46348;SDS011;32057;47.830;19.046;2024-03-23T12:15:57;0.68;;;0.68;;
46348;SDS011;32057;47.830;19.046;2024-03-23T12:18:37;1.52;;;1.42;;
46348;SDS011;32057;47.830;19.046;2024-03-23T12:21:05;2.72;;;2.20;;
46348;SDS011;32057;47.830;19.046;2024-03-23T12:23:30;1.10;;;1.05;;
46348;SDS011;32057;47.830;19.046;2024-03-23T12:25:56;1.35;;;1.23;;
46348;SDS011;32057;47.830;19.046;2024-03-23T12:28:21;2.28;;;2.03;;
46348;SDS011;32057;47.830;19.046;2024-03-23T12:30:46;1.00;;;1.00;;
46348;SDS011;32057;47.830;19.046;2024-03-23T12:33:12;1.42;;;1.20;;
46348;SDS011;32057;47.830;19.046;2024-03-23T12:35:37;1.02;;;1.00;;
46348;SDS011;32057;47.830;19.046;2024-03-23T12:38:02;1.08;;;1.08;;
46348;SDS011;32057;47.830;19.046;2024-03-23T12:40:28;2.50;;;1.70;;
46348;SDS011;32057;47.830;19.046;2024-03-23T12:42:53;1.33;;;1.23;;
46348;SDS011;32057;47.830;19.046;2024-03-23T12:45:19;1.08;;;1.05;;
46348;SDS011;32057;47.830;19.046;2024-03-23T12:47:44;1.90;;;1.35;;
46348;SDS011;32057;47.830;19.046;2024-03-23T12:50:10;1.02;;;1.00;;
46348;SDS011;32057;47.830;19.046;2024-03-23T12:52:36;0.77;;;0.77;;
46348;SDS011;32057;47.830;19.046;2024-03-23T12:55:01;0.98;;;0.98;;
46348;SDS011;32057;47.830;19.046;2024-03-23T12:57:28;1.08;;;1.08;;
46348;SDS011;32057;47.830;19.046;2024-03-23T12:59:53;0.32;;;0.32;;
46348;SDS011;32057;47.830;19.046;2024-03-23T13:02:21;0.60;;;0.60;;
46348;SDS011;32057;47.830;19.046;2024-03-23T13:04:50;0.70;;;0.70;;
46348;SDS011;32057;47.830;19.046;2024-03-23T13:07:17;0.93;;;0.93;;
46348;SDS011;32057;47.830;19.046;2024-03-23T13:09:43;1.02;;;0.77;;
46348;SDS011;32057;47.830;19.046;2024-03-23T13:12:09;0.60;;;0.60;;
46348;SDS011;32057;47.830;19.046;2024-03-23T13:14:34;0.85;;;0.82;;
46348;SDS011;32057;47.830;19.046;2024-03-23T13:17:00;0.65;;;0.47;;
46348;SDS011;32057;47.830;19.046;2024-03-23T13:19:27;0.68;;;0.68;;
46348;SDS011;32057;47.830;19.046;2024-03-23T13:22:02;2.55;;;1.50;;
46348;SDS011;32057;47.830;19.046;2024-03-23T13:24:27;3.47;;;1.25;;
46348;SDS011;32057;47.830;19.046;2024-03-23T13:26:54;1.13;;;1.13;;
46348;SDS011;32057;47.830;19.046;2024-03-23T13:29:20;0.75;;;0.75;;
46348;SDS011;32057;47.830;19.046;2024-03-23T13:31:47;0.70;;;0.70;;
46348;SDS011;32057;47.830;19.046;2024-03-23T13:34:13;0.55;;;0.55;;
46348;SDS011;32057;47.830;19.046;2024-03-23T13:36:42;0.73;;;0.73;;
46348;SDS011;32057;47.830;19.046;2024-03-23T13:39:08;0.45;;;0.45;;
46348;SDS011;32057;47.830;19.046;2024-03-23T13:41:39;1.35;;;1.25;;
46348;SDS011;32057;47.830;19.046;2024-03-23T13:44:06;0.55;;;0.55;;
46348;SDS011;32057;47.830;19.046;2024-03-23T13:46:32;0.80;;;0.80;;
46348;SDS011;32057;47.830;19.046;2024-03-23T13:48:58;0.70;;;0.70;;
46348;SDS011;32057;47.830;19.046;2024-03-23T13:51:24;2.10;;;1.10;;
46348;SDS011;32057;47.830;19.046;2024-03-23T13:53:51;1.55;;;1.10;;
46348;SDS011;32057;47.830;19.046;2024-03-23T13:56:17;0.90;;;0.85;;
46348;SDS011;32057;47.830;19.046;2024-03-23T13:58:43;1.23;;;1.13;;
46348;SDS011;32057;47.830;19.046;2024-03-23T14:01:11;0.50;;;0.50;;
46348;SDS011;32057;47.830;19.046;2024-03-23T14:03:40;0.40;;;0.40;;
46348;SDS011;32057;47.830;19.046;2024-03-23T14:06:08;1.55;;;1.17;;
46348;SDS011;32057;47.830;19.046;2024-03-23T14:08:34;0.70;;;0.70;;
46348;SDS011;32057;47.830;19.046;2024-03-23T14:11:01;0.57;;;0.38;;
46348;SDS011;32057;47.830;19.046;2024-03-23T14:13:29;0.70;;;0.43;;
46348;SDS011;32057;47.830;19.046;2024-03-23T14:15:54;0.77;;;0.77;;
46348;SDS011;32057;47.830;19.046;2024-03-23T14:18:20;5.18;;;0.80;;
46348;SDS011;32057;47.830;19.046;2024-03-23T14:20:47;0.47;;;0.45;;
46348;SDS011;32057;47.830;19.046;2024-03-23T14:23:12;1.30;;;1.23;;
46348;SDS011;32057;47.830;19.046;2024-03-23T14:25:38;0.68;;;0.68;;
46348;SDS011;32057;47.830;19.046;2024-03-23T14:28:03;0.30;;;0.30;;
46348;SDS011;32057;47.830;19.046;2024-03-23T14:30:29;2.05;;;1.58;;
46348;SDS011;32057;47.830;19.046;2024-03-23T14:32:54;1.58;;;1.13;;
46348;SDS011;32057;47.830;19.046;2024-03-23T14:35:19;1.00;;;0.57;;
46348;SDS011;32057;47.830;19.046;2024-03-23T14:37:45;0.50;;;0.50;;
46348;SDS011;32057;47.830;19.046;2024-03-23T14:40:12;0.80;;;0.80;;
46348;SDS011;32057;47.830;19.046;2024-03-23T14:42:37;4.30;;;0.75;;
46348;SDS011;32057;47.830;19.046;2024-03-23T14:45:03;0.63;;;0.63;;
46348;SDS011;32057;47.830;19.046;2024-03-23T14:47:29;1.10;;;0.70;;
46348;SDS011;32057;47.830;19.046;2024-03-23T14:49:54;0.98;;;0.80;;
46348;SDS011;32057;47.830;19.046;2024-03-23T14:52:19;0.50;;;0.50;;
46348;SDS011;32057;47.830;19.046;2024-03-23T14:54:45;0.60;;;0.60;;
46348;SDS011;32057;47.830;19.046;2024-03-23T14:57:11;2.38;;;1.80;;
46348;SDS011;32057;47.830;19.046;2024-03-23T14:59:37;0.93;;;0.93;;
46348;SDS011;32057;47.830;19.046;2024-03-23T15:02:03;0.70;;;0.70;;
46348;SDS011;32057;47.830;19.046;2024-03-23T15:04:29;1.27;;;1.20;;
46348;SDS011;32057;47.830;19.046;2024-03-23T15:06:54;2.15;;;1.13;;
46348;SDS011;32057;47.830;19.046;2024-03-23T15:09:19;0.88;;;0.77;;
46348;SDS011;32057;47.830;19.046;2024-03-23T15:11:45;0.90;;;0.90;;
46348;SDS011;32057;47.830;19.046;2024-03-23T15:14:10;2.00;;;1.77;;
46348;SDS011;32057;47.830;19.046;2024-03-23T15:16:36;0.82;;;0.80;;
46348;SDS011;32057;47.830;19.046;2024-03-23T15:19:02;0.95;;;0.95;;
46348;SDS011;32057;47.830;19.046;2024-03-23T15:21:27;0.95;;;0.95;;
46348;SDS011;32057;47.830;19.046;2024-03-23T15:23:53;1.23;;;0.75;;
46348;SDS011;32057;47.830;19.046;2024-03-23T15:26:18;4.05;;;1.88;;
46348;SDS011;32057;47.830;19.046;2024-03-23T15:28:47;0.40;;;0.40;;
46348;SDS011;32057;47.830;19.046;2024-03-23T15:31:22;0.57;;;0.57;;
46348;SDS011;32057;47.830;19.046;2024-03-23T15:33:47;0.88;;;0.70;;